Thomaston, GA

10:17 PM EDT on August 01, 2015 (GMT -0400)
APRSWXNET | | Change Station
CLOSE
Current Station
Personal Weather Station
Location: Thomaston, GA
Elevation: 692 ft
Nearby Weather Stations

Elev 692 ft 32.89 °N, 84.33 °W | Updated 18 minutes ago

Mostly Cloudy
Mostly Cloudy
81 °F
Feels Like 85 °F
N
0
Wind Variable Wind from NNE
Gusts 0.0 mph

Today
High -- | Low -- °F
--% Chance of Precip.
Yesterday
High -- | Low -- °F
Precip. -- in
6:50 AM 8:36 PM
Waning Gibbous, 96% visible
Pressure 29.95 in
Visibility 10.0 miles
Clouds Mostly Cloudy 7500 ft
Heat Index 85 °F
Dew Point 70 °F
Humidity 70%
Rainfall in
Snow Depth Not available.
UV 0 out of 12
Pollen 4.20 out of 12
Air Quality Not available.
Flu Activity Not available.
METAR KOPN 020155Z AUTO 06004KT 10SM BKN075 26/23 A2995 RMK AO2 LTG DSNT S

More Conditions Fewer Conditions

Pressure 29.95 in
Visibility 10.0 miles
Clouds Mostly Cloudy 7500 ft
Heat Index 85 °F
Dew Point 70 °F
Humidity 70%
Rainfall in
Snow Depth Not available.
UV 0 out of 12
Pollen 4.20 out of 12
Air Quality Not available.
Flu Activity Not available.
METAR KOPN 020155Z AUTO 06004KT 10SM BKN075 26/23 A2995 RMK AO2 LTG DSNT S

More Conditions Fewer Conditions

10-Day Weather Forecast

×

Almanac

Astronomy

Aug. 01, 2015 Rise Set
Actual Time
Civil Twilight
Nautical Twilight
Astronomical Twilight
Moon
Length of Visible Light
Length of Day
Tomorrow will be .
, % of the Moon is Illuminated

Today's Extremes

State Highs State Lows

Community

WunderPhotos

Upload Photos

1,843,135 photos uploaded!

WunderBlogs® & News

Nearby

Air Quality

  Air Quality AQ Index Pollutant
Not available.

Snow Depth

Station Depth Elevation

Earthquake Activity

City Distance Mag. Time & Date
Minimum magnitude displayed is 2.5.

Coastal Water Temperatures

Place Temperature

Stations

Nearby Weather Stations

Station Location Temp. Windchill Dew Point Humidity Wind Precip. Elev Updated Type